University Oxford Airport
KUOX : now visible

Airfield :











YOU CAN JOIN US ON...

 
LOGIN :

Register | Disclaimer

   EN    FR    IT 

 









Legend :    VFR   Marginal VFR   IFR   Intensive IFR   Very Intensive IFR
Visi :
Ceiling :
>= 8 km
>= 3000ft
5 to 8 km
1000 to 3000 ft
1500m to 5 km
500 to 1000 ft
800 to 1500m
200 to 500 ft
< 800m
< 200 ft
Symbols :   Thunderstorms  Fog  Heavy snow  Heavy precipitations  Wind > 20 kt






- Airport Elevation : 452 ft


KUOX - University Oxford

CURRENT METAR :
  • 060535Z AUTO 16007KT 10SM OVC110 12/03 A3010 RMK AO2

EXPIRED METARs :
  • 060515Z AUTO 16007KT 10SM BKN100 12/03 A3009 RMK AO2
  • 060455Z AUTO 15006KT 10SM FEW022 SCT100 12/03 A3009 RMK AO2
  • 060435Z AUTO 18006G13KT 10SM SCT022 SCT090 OVC110 12/03 A3010 RMK AO2
  • 060415Z AUTO 16008KT 10SM OVC110 12/03 A3008 RMK AO2
  • 060355Z AUTO 15007KT 10SM OVC110 12/03 A3009 RMK AO2
  • 060335Z AUTO 15006KT 10SM OVC110 12/03 A3008 RMK AO2
  • 060315Z AUTO 15007KT 10SM BKN110 12/03 A3008 RMK AO2
  • 060255Z AUTO 15006KT 10SM BKN110 12/03 A3008 RMK AO2

TAF N/A



MET'MAP, your aeronautical weather chart ! - Copyright ORBIFLY December 2007 - Disclaimer

ORBIFLY MET'MAP TEAM :

Programming & Development : Alexandra Zaïnal
Concept & original design : Baudouin d'Aumeries
Assistance for programming : Marc-Olivier Méhu
Technical & hardware support : Manuel Goepfert

Contact : metmap@orbifly.com




SOURCES & CREDITS :

   NOAA       Earth
Advisory